sensor_id;sensor_type;location;lat;lon;timestamp;P1;durP1;ratioP1;P2;durP2;ratioP2
71665;SDS011;59503;53.486;10.196;2022-12-20T00:00:53;27.23;;;11.40;;
71665;SDS011;59503;53.486;10.196;2022-12-20T00:03:18;21.20;;;9.50;;
71665;SDS011;59503;53.486;10.196;2022-12-20T00:05:44;21.67;;;9.77;;
71665;SDS011;59503;53.486;10.196;2022-12-20T00:08:10;21.40;;;10.07;;
71665;SDS011;59503;53.486;10.196;2022-12-20T00:10:36;24.10;;;10.03;;
71665;SDS011;59503;53.486;10.196;2022-12-20T00:13:02;25.75;;;10.07;;
71665;SDS011;59503;53.486;10.196;2022-12-20T00:15:28;19.85;;;9.30;;
71665;SDS011;59503;53.486;10.196;2022-12-20T00:17:53;21.77;;;9.73;;
71665;SDS011;59503;53.486;10.196;2022-12-20T00:20:19;19.33;;;9.10;;
71665;SDS011;59503;53.486;10.196;2022-12-20T00:22:44;23.87;;;9.70;;
71665;SDS011;59503;53.486;10.196;2022-12-20T00:25:10;21.47;;;9.70;;
71665;SDS011;59503;53.486;10.196;2022-12-20T00:27:35;19.90;;;9.07;;
71665;SDS011;59503;53.486;10.196;2022-12-20T00:30:01;19.17;;;8.93;;
71665;SDS011;59503;53.486;10.196;2022-12-20T00:32:26;22.77;;;8.77;;
71665;SDS011;59503;53.486;10.196;2022-12-20T00:34:51;20.77;;;8.83;;
71665;SDS011;59503;53.486;10.196;2022-12-20T00:37:17;19.50;;;8.57;;
71665;SDS011;59503;53.486;10.196;2022-12-20T00:39:42;18.63;;;8.85;;
71665;SDS011;59503;53.486;10.196;2022-12-20T00:42:07;20.30;;;8.83;;
71665;SDS011;59503;53.486;10.196;2022-12-20T00:44:33;17.63;;;9.23;;
71665;SDS011;59503;53.486;10.196;2022-12-20T00:46:58;18.67;;;8.60;;
71665;SDS011;59503;53.486;10.196;2022-12-20T00:49:24;16.27;;;8.00;;
71665;SDS011;59503;53.486;10.196;2022-12-20T00:51:49;17.33;;;8.97;;
71665;SDS011;59503;53.486;10.196;2022-12-20T00:54:15;14.50;;;8.50;;
71665;SDS011;59503;53.486;10.196;2022-12-20T00:56:40;16.47;;;8.00;;
71665;SDS011;59503;53.486;10.196;2022-12-20T00:59:06;16.00;;;7.83;;
71665;SDS011;59503;53.486;10.196;2022-12-20T01:01:31;18.40;;;8.03;;
71665;SDS011;59503;53.486;10.196;2022-12-20T01:03:58;20.13;;;8.13;;
71665;SDS011;59503;53.486;10.196;2022-12-20T01:06:24;18.48;;;7.53;;
71665;SDS011;59503;53.486;10.196;2022-12-20T01:08:50;14.77;;;7.00;;
71665;SDS011;59503;53.486;10.196;2022-12-20T01:11:18;21.45;;;8.52;;
71665;SDS011;59503;53.486;10.196;2022-12-20T01:13:46;16.33;;;8.10;;
71665;SDS011;59503;53.486;10.196;2022-12-20T01:16:15;21.40;;;9.18;;
71665;SDS011;59503;53.486;10.196;2022-12-20T01:18:40;17.40;;;8.25;;
71665;SDS011;59503;53.486;10.196;2022-12-20T01:21:07;19.57;;;8.47;;
71665;SDS011;59503;53.486;10.196;2022-12-20T01:23:34;18.98;;;8.65;;
71665;SDS011;59503;53.486;10.196;2022-12-20T01:26:00;19.63;;;8.57;;
71665;SDS011;59503;53.486;10.196;2022-12-20T01:28:29;18.95;;;8.13;;
71665;SDS011;59503;53.486;10.196;2022-12-20T01:30:55;17.87;;;8.53;;
71665;SDS011;59503;53.486;10.196;2022-12-20T01:33:21;17.85;;;7.85;;
71665;SDS011;59503;53.486;10.196;2022-12-20T01:38:22;17.40;;;8.33;;
71665;SDS011;59503;53.486;10.196;2022-12-20T01:40:48;16.15;;;7.57;;
71665;SDS011;59503;53.486;10.196;2022-12-20T01:43:13;16.80;;;8.60;;
71665;SDS011;59503;53.486;10.196;2022-12-20T01:45:41;18.63;;;8.18;;
71665;SDS011;59503;53.486;10.196;2022-12-20T01:48:07;15.30;;;7.68;;
71665;SDS011;59503;53.486;10.196;2022-12-20T01:50:33;16.17;;;8.13;;
71665;SDS011;59503;53.486;10.196;2022-12-20T01:52:59;20.83;;;8.00;;
71665;SDS011;59503;53.486;10.196;2022-12-20T01:55:28;18.55;;;8.23;;
71665;SDS011;59503;53.486;10.196;2022-12-20T01:57:56;16.60;;;7.53;;
71665;SDS011;59503;53.486;10.196;2022-12-20T02:00:25;20.13;;;8.25;;
71665;SDS011;59503;53.486;10.196;2022-12-20T02:02:51;18.73;;;7.83;;
71665;SDS011;59503;53.486;10.196;2022-12-20T02:05:19;15.70;;;7.53;;
71665;SDS011;59503;53.486;10.196;2022-12-20T02:07:47;14.30;;;7.43;;
71665;SDS011;59503;53.486;10.196;2022-12-20T02:10:14;13.25;;;6.63;;
71665;SDS011;59503;53.486;10.196;2022-12-20T02:12:43;15.90;;;7.40;;
71665;SDS011;59503;53.486;10.196;2022-12-20T02:20:53;14.27;;;7.22;;
71665;SDS011;59503;53.486;10.196;2022-12-20T02:34:40;14.93;;;7.63;;
71665;SDS011;59503;53.486;10.196;2022-12-20T02:37:06;13.30;;;7.65;;
71665;SDS011;59503;53.486;10.196;2022-12-20T02:39:32;17.53;;;7.17;;
71665;SDS011;59503;53.486;10.196;2022-12-20T02:42:04;16.33;;;7.82;;
71665;SDS011;59503;53.486;10.196;2022-12-20T02:44:33;15.38;;;6.85;;
71665;SDS011;59503;53.486;10.196;2022-12-20T02:47:22;15.00;;;7.10;;
71665;SDS011;59503;53.486;10.196;2022-12-20T02:49:53;14.73;;;7.93;;
71665;SDS011;59503;53.486;10.196;2022-12-20T02:52:19;16.48;;;7.53;;
71665;SDS011;59503;53.486;10.196;2022-12-20T02:54:51;15.90;;;7.32;;
71665;SDS011;59503;53.486;10.196;2022-12-20T02:57:22;15.43;;;7.38;;
71665;SDS011;59503;53.486;10.196;2022-12-20T03:02:36;16.50;;;6.75;;
71665;SDS011;59503;53.486;10.196;2022-12-20T03:05:21;15.98;;;6.95;;
71665;SDS011;59503;53.486;10.196;2022-12-20T03:07:49;15.18;;;7.28;;
71665;SDS011;59503;53.486;10.196;2022-12-20T03:10:16;20.17;;;8.45;;
71665;SDS011;59503;53.486;10.196;2022-12-20T03:12:42;15.47;;;7.43;;
71665;SDS011;59503;53.486;10.196;2022-12-20T03:15:08;17.13;;;7.43;;
71665;SDS011;59503;53.486;10.196;2022-12-20T03:17:34;16.00;;;7.18;;
71665;SDS011;59503;53.486;10.196;2022-12-20T03:19:59;17.17;;;7.13;;
71665;SDS011;59503;53.486;10.196;2022-12-20T03:22:25;13.40;;;6.70;;
71665;SDS011;59503;53.486;10.196;2022-12-20T03:24:51;16.65;;;7.18;;
71665;SDS011;59503;53.486;10.196;2022-12-20T03:27:17;14.27;;;7.00;;
71665;SDS011;59503;53.486;10.196;2022-12-20T03:29:42;15.82;;;7.45;;
71665;SDS011;59503;53.486;10.196;2022-12-20T03:32:10;15.17;;;7.20;;
71665;SDS011;59503;53.486;10.196;2022-12-20T03:34:36;14.80;;;7.05;;
71665;SDS011;59503;53.486;10.196;2022-12-20T03:37:01;15.37;;;8.27;;
71665;SDS011;59503;53.486;10.196;2022-12-20T03:39:26;16.13;;;6.90;;
71665;SDS011;59503;53.486;10.196;2022-12-20T03:41:52;16.33;;;7.30;;
71665;SDS011;59503;53.486;10.196;2022-12-20T03:44:17;16.70;;;7.20;;
71665;SDS011;59503;53.486;10.196;2022-12-20T03:46:43;15.37;;;7.13;;
71665;SDS011;59503;53.486;10.196;2022-12-20T03:49:08;15.88;;;7.53;;
71665;SDS011;59503;53.486;10.196;2022-12-20T03:51:33;15.03;;;7.07;;
71665;SDS011;59503;53.486;10.196;2022-12-20T03:53:59;16.97;;;7.40;;
71665;SDS011;59503;53.486;10.196;2022-12-20T03:56:24;14.90;;;7.10;;
71665;SDS011;59503;53.486;10.196;2022-12-20T03:58:50;16.40;;;7.40;;
71665;SDS011;59503;53.486;10.196;2022-12-20T04:01:25;14.93;;;6.73;;
71665;SDS011;59503;53.486;10.196;2022-12-20T04:03:52;15.82;;;7.85;;
71665;SDS011;59503;53.486;10.196;2022-12-20T04:06:18;16.20;;;7.33;;
71665;SDS011;59503;53.486;10.196;2022-12-20T04:08:45;14.70;;;6.93;;
71665;SDS011;59503;53.486;10.196;2022-12-20T04:11:11;15.30;;;7.40;;
71665;SDS011;59503;53.486;10.196;2022-12-20T04:13:43;12.52;;;6.90;;
71665;SDS011;59503;53.486;10.196;2022-12-20T04:16:13;16.58;;;7.60;;
71665;SDS011;59503;53.486;10.196;2022-12-20T04:18:41;15.50;;;7.53;;
71665;SDS011;59503;53.486;10.196;2022-12-20T04:21:07;15.67;;;7.87;;
71665;SDS011;59503;53.486;10.196;2022-12-20T04:23:33;14.90;;;7.10;;
71665;SDS011;59503;53.486;10.196;2022-12-20T04:26:00;18.42;;;8.43;;
71665;SDS011;59503;53.486;10.196;2022-12-20T04:28:27;13.90;;;7.60;;
71665;SDS011;59503;53.486;10.196;2022-12-20T04:30:53;14.32;;;8.00;;
71665;SDS011;59503;53.486;10.196;2022-12-20T04:33:18;22.07;;;8.17;;
71665;SDS011;59503;53.486;10.196;2022-12-20T04:35:44;14.80;;;7.50;;
71665;SDS011;59503;53.486;10.196;2022-12-20T04:38:09;18.02;;;8.23;;
71665;SDS011;59503;53.486;10.196;2022-12-20T04:40:34;17.63;;;8.07;;
71665;SDS011;59503;53.486;10.196;2022-12-20T04:43:00;20.43;;;8.83;;
71665;SDS011;59503;53.486;10.196;2022-12-20T04:45:25;17.00;;;8.33;;
71665;SDS011;59503;53.486;10.196;2022-12-20T04:47:51;13.57;;;7.33;;
71665;SDS011;59503;53.486;10.196;2022-12-20T04:50:16;16.90;;;8.52;;
71665;SDS011;59503;53.486;10.196;2022-12-20T04:52:43;22.30;;;8.80;;
71665;SDS011;59503;53.486;10.196;2022-12-20T04:55:27;15.50;;;8.32;;
71665;SDS011;59503;53.486;10.196;2022-12-20T04:57:53;18.20;;;8.63;;
71665;SDS011;59503;53.486;10.196;2022-12-20T05:00:18;19.00;;;8.60;;
71665;SDS011;59503;53.486;10.196;2022-12-20T05:02:45;19.83;;;8.93;;
71665;SDS011;59503;53.486;10.196;2022-12-20T05:05:10;24.53;;;9.90;;
71665;SDS011;59503;53.486;10.196;2022-12-20T05:07:36;19.88;;;9.00;;
71665;SDS011;59503;53.486;10.196;2022-12-20T05:10:02;20.37;;;10.47;;
71665;SDS011;59503;53.486;10.196;2022-12-20T05:12:27;20.85;;;10.25;;
71665;SDS011;59503;53.486;10.196;2022-12-20T05:14:53;24.67;;;11.07;;
71665;SDS011;59503;53.486;10.196;2022-12-20T05:17:18;22.13;;;9.97;;
71665;SDS011;59503;53.486;10.196;2022-12-20T05:19:44;21.03;;;9.50;;
71665;SDS011;59503;53.486;10.196;2022-12-20T05:22:10;24.17;;;10.35;;
71665;SDS011;59503;53.486;10.196;2022-12-20T05:25:01;23.73;;;11.27;;
71665;SDS011;59503;53.486;10.196;2022-12-20T05:27:45;31.23;;;11.63;;
71665;SDS011;59503;53.486;10.196;2022-12-20T05:30:11;33.53;;;12.02;;
71665;SDS011;59503;53.486;10.196;2022-12-20T05:32:36;29.60;;;12.33;;
71665;SDS011;59503;53.486;10.196;2022-12-20T05:35:02;27.38;;;12.30;;
71665;SDS011;59503;53.486;10.196;2022-12-20T05:37:28;30.63;;;12.17;;
71665;SDS011;59503;53.486;10.196;2022-12-20T05:39:53;27.30;;;11.10;;
71665;SDS011;59503;53.486;10.196;2022-12-20T05:42:18;29.27;;;10.90;;
71665;SDS011;59503;53.486;10.196;2022-12-20T05:44:44;29.43;;;11.77;;
71665;SDS011;59503;53.486;10.196;2022-12-20T05:47:10;27.70;;;12.50;;
71665;SDS011;59503;53.486;10.196;2022-12-20T05:49:35;29.75;;;13.20;;
71665;SDS011;59503;53.486;10.196;2022-12-20T05:52:01;29.80;;;11.50;;
71665;SDS011;59503;53.486;10.196;2022-12-20T05:54:26;29.75;;;12.50;;
71665;SDS011;59503;53.486;10.196;2022-12-20T05:56:52;34.97;;;12.47;;
71665;SDS011;59503;53.486;10.196;2022-12-20T05:59:17;32.20;;;12.37;;
71665;SDS011;59503;53.486;10.196;2022-12-20T06:01:43;36.07;;;12.73;;
71665;SDS011;59503;53.486;10.196;2022-12-20T06:04:08;31.13;;;12.17;;
71665;SDS011;59503;53.486;10.196;2022-12-20T06:06:34;30.37;;;12.27;;
71665;SDS011;59503;53.486;10.196;2022-12-20T06:08:59;36.70;;;11.47;;
71665;SDS011;59503;53.486;10.196;2022-12-20T06:11:25;28.58;;;11.45;;
71665;SDS011;59503;53.486;10.196;2022-12-20T06:13:50;28.30;;;11.70;;
71665;SDS011;59503;53.486;10.196;2022-12-20T06:16:16;30.27;;;11.70;;
71665;SDS011;59503;53.486;10.196;2022-12-20T06:18:44;40.50;;;12.50;;
71665;SDS011;59503;53.486;10.196;2022-12-20T06:21:10;31.55;;;12.50;;
71665;SDS011;59503;53.486;10.196;2022-12-20T06:23:38;31.03;;;12.87;;
71665;SDS011;59503;53.486;10.196;2022-12-20T06:26:04;27.80;;;11.43;;
71665;SDS011;59503;53.486;10.196;2022-12-20T06:28:33;22.20;;;10.70;;
71665;SDS011;59503;53.486;10.196;2022-12-20T06:30:58;27.98;;;10.55;;
71665;SDS011;59503;53.486;10.196;2022-12-20T06:33:24;26.07;;;10.87;;
71665;SDS011;59503;53.486;10.196;2022-12-20T06:35:49;32.80;;;11.63;;
71665;SDS011;59503;53.486;10.196;2022-12-20T06:38:15;27.58;;;10.90;;
71665;SDS011;59503;53.486;10.196;2022-12-20T06:40:40;35.07;;;11.07;;
71665;SDS011;59503;53.486;10.196;2022-12-20T06:43:06;30.47;;;11.33;;
71665;SDS011;59503;53.486;10.196;2022-12-20T06:45:31;26.95;;;11.00;;
71665;SDS011;59503;53.486;10.196;2022-12-20T06:47:57;31.53;;;11.27;;
71665;SDS011;59503;53.486;10.196;2022-12-20T06:50:23;42.72;;;12.45;;
71665;SDS011;59503;53.486;10.196;2022-12-20T06:52:48;32.77;;;12.03;;
71665;SDS011;59503;53.486;10.196;2022-12-20T06:55:14;32.05;;;11.32;;
71665;SDS011;59503;53.486;10.196;2022-12-20T06:57:39;30.53;;;10.87;;
71665;SDS011;59503;53.486;10.196;2022-12-20T07:00:05;32.50;;;12.00;;
71665;SDS011;59503;53.486;10.196;2022-12-20T07:02:32;30.65;;;10.48;;
71665;SDS011;59503;53.486;10.196;2022-12-20T07:04:58;31.33;;;11.82;;
71665;SDS011;59503;53.486;10.196;2022-12-20T07:07:24;28.80;;;11.47;;
71665;SDS011;59503;53.486;10.196;2022-12-20T07:09:49;31.27;;;11.45;;
71665;SDS011;59503;53.486;10.196;2022-12-20T07:12:15;28.77;;;11.37;;
71665;SDS011;59503;53.486;10.196;2022-12-20T07:14:40;30.63;;;12.50;;
71665;SDS011;59503;53.486;10.196;2022-12-20T07:17:06;32.72;;;12.88;;
71665;SDS011;59503;53.486;10.196;2022-12-20T07:19:32;26.00;;;11.33;;
71665;SDS011;59503;53.486;10.196;2022-12-20T07:21:58;30.43;;;12.27;;
71665;SDS011;59503;53.486;10.196;2022-12-20T07:24:23;30.48;;;12.18;;
71665;SDS011;59503;53.486;10.196;2022-12-20T07:26:49;32.20;;;12.50;;
71665;SDS011;59503;53.486;10.196;2022-12-20T07:29:14;30.60;;;12.53;;
71665;SDS011;59503;53.486;10.196;2022-12-20T07:31:39;26.57;;;11.13;;
71665;SDS011;59503;53.486;10.196;2022-12-20T07:34:05;27.93;;;11.83;;
71665;SDS011;59503;53.486;10.196;2022-12-20T07:36:30;30.48;;;12.40;;
71665;SDS011;59503;53.486;10.196;2022-12-20T07:38:56;26.90;;;12.13;;
71665;SDS011;59503;53.486;10.196;2022-12-20T07:41:22;29.75;;;11.90;;
71665;SDS011;59503;53.486;10.196;2022-12-20T07:43:49;30.33;;;12.37;;
71665;SDS011;59503;53.486;10.196;2022-12-20T07:46:15;31.25;;;11.88;;
71665;SDS011;59503;53.486;10.196;2022-12-20T07:48:41;28.65;;;11.75;;
71665;SDS011;59503;53.486;10.196;2022-12-20T07:51:09;28.55;;;12.20;;
71665;SDS011;59503;53.486;10.196;2022-12-20T07:53:39;25.65;;;11.65;;
71665;SDS011;59503;53.486;10.196;2022-12-20T07:56:09;27.70;;;11.77;;
71665;SDS011;59503;53.486;10.196;2022-12-20T07:58:36;30.63;;;11.02;;
71665;SDS011;59503;53.486;10.196;2022-12-20T08:01:05;28.60;;;12.05;;
71665;SDS011;59503;53.486;10.196;2022-12-20T08:03:36;24.80;;;10.73;;
71665;SDS011;59503;53.486;10.196;2022-12-20T08:06:08;26.52;;;11.65;;
71665;SDS011;59503;53.486;10.196;2022-12-20T08:08:35;22.73;;;11.00;;
71665;SDS011;59503;53.486;10.196;2022-12-20T08:11:05;25.00;;;10.45;;
71665;SDS011;59503;53.486;10.196;2022-12-20T08:13:32;24.60;;;10.90;;
71665;SDS011;59503;53.486;10.196;2022-12-20T08:15:58;27.57;;;11.13;;
71665;SDS011;59503;53.486;10.196;2022-12-20T08:18:25;25.83;;;11.48;;
71665;SDS011;59503;53.486;10.196;2022-12-20T08:20:50;27.47;;;11.33;;
71665;SDS011;59503;53.486;10.196;2022-12-20T08:23:16;28.48;;;12.32;;
71665;SDS011;59503;53.486;10.196;2022-12-20T08:25:43;24.05;;;10.80;;
71665;SDS011;59503;53.486;10.196;2022-12-20T08:28:09;25.88;;;10.73;;
71665;SDS011;59503;53.486;10.196;2022-12-20T08:30:34;25.27;;;10.57;;
71665;SDS011;59503;53.486;10.196;2022-12-20T08:33:00;25.02;;;11.38;;
71665;SDS011;59503;53.486;10.196;2022-12-20T08:35:25;24.93;;;10.70;;
71665;SDS011;59503;53.486;10.196;2022-12-20T08:37:51;24.83;;;10.60;;
71665;SDS011;59503;53.486;10.196;2022-12-20T08:40:17;28.00;;;10.83;;
71665;SDS011;59503;53.486;10.196;2022-12-20T08:42:43;23.30;;;10.55;;
71665;SDS011;59503;53.486;10.196;2022-12-20T08:45:09;26.25;;;11.85;;
71665;SDS011;59503;53.486;10.196;2022-12-20T08:47:35;28.33;;;11.33;;
71665;SDS011;59503;53.486;10.196;2022-12-20T08:50:00;23.13;;;10.93;;
71665;SDS011;59503;53.486;10.196;2022-12-20T08:52:27;26.70;;;11.27;;
71665;SDS011;59503;53.486;10.196;2022-12-20T08:54:53;25.40;;;11.13;;
71665;SDS011;59503;53.486;10.196;2022-12-20T08:57:18;27.40;;;11.33;;
71665;SDS011;59503;53.486;10.196;2022-12-20T08:59:44;29.47;;;11.63;;
71665;SDS011;59503;53.486;10.196;2022-12-20T09:02:09;27.03;;;11.20;;
71665;SDS011;59503;53.486;10.196;2022-12-20T09:04:34;22.80;;;11.17;;
71665;SDS011;59503;53.486;10.196;2022-12-20T09:07:00;22.53;;;11.37;;
71665;SDS011;59503;53.486;10.196;2022-12-20T09:09:26;21.63;;;10.80;;
71665;SDS011;59503;53.486;10.196;2022-12-20T09:11:51;24.47;;;10.33;;
71665;SDS011;59503;53.486;10.196;2022-12-20T09:14:16;27.13;;;10.73;;
71665;SDS011;59503;53.486;10.196;2022-12-20T09:16:42;24.40;;;10.90;;
71665;SDS011;59503;53.486;10.196;2022-12-20T09:19:09;24.03;;;10.93;;
71665;SDS011;59503;53.486;10.196;2022-12-20T09:21:37;24.77;;;10.65;;
71665;SDS011;59503;53.486;10.196;2022-12-20T09:24:03;26.93;;;10.90;;
71665;SDS011;59503;53.486;10.196;2022-12-20T09:26:29;21.40;;;10.20;;
71665;SDS011;59503;53.486;10.196;2022-12-20T09:28:55;21.37;;;10.03;;
71665;SDS011;59503;53.486;10.196;2022-12-20T09:31:21;23.58;;;10.38;;
71665;SDS011;59503;53.486;10.196;2022-12-20T09:33:48;20.83;;;10.05;;
71665;SDS011;59503;53.486;10.196;2022-12-20T09:36:18;23.30;;;9.73;;
71665;SDS011;59503;53.486;10.196;2022-12-20T09:38:45;24.20;;;9.70;;
71665;SDS011;59503;53.486;10.196;2022-12-20T09:46:57;19.88;;;9.55;;
71665;SDS011;59503;53.486;10.196;2022-12-20T09:49:27;17.23;;;8.97;;
71665;SDS011;59503;53.486;10.196;2022-12-20T09:57:18;21.65;;;8.98;;
71665;SDS011;59503;53.486;10.196;2022-12-20T10:00:11;19.90;;;8.07;;
71665;SDS011;59503;53.486;10.196;2022-12-20T10:02:39;18.20;;;8.97;;
71665;SDS011;59503;53.486;10.196;2022-12-20T10:05:05;15.60;;;8.15;;
71665;SDS011;59503;53.486;10.196;2022-12-20T10:07:38;18.35;;;8.30;;
71665;SDS011;59503;53.486;10.196;2022-12-20T10:10:31;15.83;;;7.80;;
71665;SDS011;59503;53.486;10.196;2022-12-20T10:15:51;15.80;;;7.80;;
71665;SDS011;59503;53.486;10.196;2022-12-20T10:21:25;14.30;;;7.15;;
71665;SDS011;59503;53.486;10.196;2022-12-20T10:24:19;13.57;;;7.63;;
71665;SDS011;59503;53.486;10.196;2022-12-20T10:26:51;15.43;;;7.85;;
71665;SDS011;59503;53.486;10.196;2022-12-20T10:29:17;15.27;;;7.53;;
71665;SDS011;59503;53.486;10.196;2022-12-20T10:31:45;14.82;;;8.00;;
71665;SDS011;59503;53.486;10.196;2022-12-20T10:34:13;16.77;;;7.68;;
71665;SDS011;59503;53.486;10.196;2022-12-20T10:36:41;16.45;;;7.60;;
71665;SDS011;59503;53.486;10.196;2022-12-20T10:39:07;16.77;;;8.00;;
71665;SDS011;59503;53.486;10.196;2022-12-20T10:44:21;13.38;;;7.20;;
71665;SDS011;59503;53.486;10.196;2022-12-20T10:46:51;14.40;;;7.28;;
71665;SDS011;59503;53.486;10.196;2022-12-20T10:51:51;16.40;;;7.73;;
71665;SDS011;59503;53.486;10.196;2022-12-20T10:54:21;12.77;;;7.07;;
71665;SDS011;59503;53.486;10.196;2022-12-20T10:57:33;15.77;;;8.52;;
71665;SDS011;59503;53.486;10.196;2022-12-20T10:59:41;14.77;;;8.23;;
71665;SDS011;59503;53.486;10.196;2022-12-20T11:02:29;15.60;;;8.70;;
71665;SDS011;59503;53.486;10.196;2022-12-20T11:07:28;21.10;;;8.55;;
71665;SDS011;59503;53.486;10.196;2022-12-20T11:09:57;19.50;;;8.95;;
71665;SDS011;59503;53.486;10.196;2022-12-20T11:12:24;16.20;;;8.65;;
71665;SDS011;59503;53.486;10.196;2022-12-20T11:14:50;16.13;;;8.00;;
71665;SDS011;59503;53.486;10.196;2022-12-20T11:17:36;17.10;;;8.37;;
71665;SDS011;59503;53.486;10.196;2022-12-20T11:34:19;15.30;;;7.95;;
71665;SDS011;59503;53.486;10.196;2022-12-20T11:45:37;15.47;;;7.87;;
71665;SDS011;59503;53.486;10.196;2022-12-20T11:48:38;15.20;;;8.63;;
71665;SDS011;59503;53.486;10.196;2022-12-20T11:51:21;14.82;;;7.55;;
71665;SDS011;59503;53.486;10.196;2022-12-20T11:53:51;12.95;;;7.38;;
71665;SDS011;59503;53.486;10.196;2022-12-20T11:56:37;13.98;;;7.65;;
71665;SDS011;59503;53.486;10.196;2022-12-20T11:59:24;14.70;;;6.90;;
71665;SDS011;59503;53.486;10.196;2022-12-20T12:02:04;11.52;;;6.07;;
71665;SDS011;59503;53.486;10.196;2022-12-20T12:04:37;15.65;;;6.78;;
71665;SDS011;59503;53.486;10.196;2022-12-20T12:07:14;14.45;;;6.88;;
71665;SDS011;59503;53.486;10.196;2022-12-20T12:18:20;11.98;;;6.70;;
71665;SDS011;59503;53.486;10.196;2022-12-20T12:21:00;12.88;;;7.28;;
71665;SDS011;59503;53.486;10.196;2022-12-20T12:26:23;15.07;;;6.60;;
71665;SDS011;59503;53.486;10.196;2022-12-20T12:28:53;11.57;;;6.55;;
71665;SDS011;59503;53.486;10.196;2022-12-20T12:31:22;12.30;;;6.70;;
71665;SDS011;59503;53.486;10.196;2022-12-20T12:33:59;14.68;;;6.85;;
71665;SDS011;59503;53.486;10.196;2022-12-20T12:42:15;13.38;;;6.05;;
71665;SDS011;59503;53.486;10.196;2022-12-20T12:45:24;12.05;;;6.30;;
71665;SDS011;59503;53.486;10.196;2022-12-20T12:47:57;17.40;;;6.93;;
71665;SDS011;59503;53.486;10.196;2022-12-20T12:50:39;15.82;;;6.45;;
71665;SDS011;59503;53.486;10.196;2022-12-20T12:53:15;13.27;;;6.60;;
71665;SDS011;59503;53.486;10.196;2022-12-20T12:55:45;10.90;;;6.65;;
71665;SDS011;59503;53.486;10.196;2022-12-20T13:01:03;14.43;;;7.60;;
71665;SDS011;59503;53.486;10.196;2022-12-20T13:11:29;12.85;;;7.07;;
71665;SDS011;59503;53.486;10.196;2022-12-20T13:16:39;11.75;;;6.28;;
71665;SDS011;59503;53.486;10.196;2022-12-20T13:21:39;16.25;;;7.28;;
71665;SDS011;59503;53.486;10.196;2022-12-20T13:40:56;8.90;;;5.30;;
71665;SDS011;59503;53.486;10.196;2022-12-20T13:43:25;12.73;;;5.20;;
71665;SDS011;59503;53.486;10.196;2022-12-20T13:46:59;10.82;;;5.70;;
71665;SDS011;59503;53.486;10.196;2022-12-20T13:48:56;8.18;;;5.00;;
71665;SDS011;59503;53.486;10.196;2022-12-20T13:51:27;12.43;;;5.60;;
71665;SDS011;59503;53.486;10.196;2022-12-20T13:53:54;14.32;;;5.88;;
71665;SDS011;59503;53.486;10.196;2022-12-20T13:58:50;10.82;;;5.47;;
71665;SDS011;59503;53.486;10.196;2022-12-20T14:01:17;12.55;;;5.70;;
71665;SDS011;59503;53.486;10.196;2022-12-20T14:03:47;9.40;;;5.47;;
71665;SDS011;59503;53.486;10.196;2022-12-20T14:06:13;9.88;;;5.68;;
71665;SDS011;59503;53.486;10.196;2022-12-20T14:08:40;15.43;;;6.15;;
71665;SDS011;59503;53.486;10.196;2022-12-20T14:13:49;12.27;;;5.70;;
71665;SDS011;59503;53.486;10.196;2022-12-20T14:16:18;14.87;;;6.27;;
71665;SDS011;59503;53.486;10.196;2022-12-20T14:18:47;14.45;;;6.50;;
71665;SDS011;59503;53.486;10.196;2022-12-20T14:21:21;12.40;;;6.22;;
71665;SDS011;59503;53.486;10.196;2022-12-20T14:23:48;10.40;;;5.75;;
71665;SDS011;59503;53.486;10.196;2022-12-20T14:26:17;12.70;;;6.57;;
71665;SDS011;59503;53.486;10.196;2022-12-20T14:28:48;13.50;;;6.45;;
71665;SDS011;59503;53.486;10.196;2022-12-20T14:31:33;12.80;;;5.82;;
71665;SDS011;59503;53.486;10.196;2022-12-20T14:36:34;10.73;;;5.43;;
71665;SDS011;59503;53.486;10.196;2022-12-20T14:39:09;10.50;;;6.00;;
71665;SDS011;59503;53.486;10.196;2022-12-20T14:41:45;13.63;;;6.30;;
71665;SDS011;59503;53.486;10.196;2022-12-20T14:44:17;10.37;;;6.17;;
71665;SDS011;59503;53.486;10.196;2022-12-20T14:46:51;10.15;;;5.82;;
71665;SDS011;59503;53.486;10.196;2022-12-20T14:51:46;14.48;;;6.07;;
71665;SDS011;59503;53.486;10.196;2022-12-20T14:54:15;11.75;;;6.43;;
71665;SDS011;59503;53.486;10.196;2022-12-20T14:56:46;11.23;;;6.10;;
71665;SDS011;59503;53.486;10.196;2022-12-20T14:59:15;9.50;;;6.07;;
71665;SDS011;59503;53.486;10.196;2022-12-20T15:01:42;10.55;;;6.03;;
71665;SDS011;59503;53.486;10.196;2022-12-20T15:04:21;11.70;;;6.18;;
71665;SDS011;59503;53.486;10.196;2022-12-20T15:06:55;12.23;;;5.83;;
71665;SDS011;59503;53.486;10.196;2022-12-20T15:09:21;12.15;;;6.30;;
71665;SDS011;59503;53.486;10.196;2022-12-20T15:11:46;13.93;;;6.30;;
71665;SDS011;59503;53.486;10.196;2022-12-20T15:17:08;12.15;;;7.18;;
71665;SDS011;59503;53.486;10.196;2022-12-20T15:19:35;15.23;;;6.30;;
71665;SDS011;59503;53.486;10.196;2022-12-20T15:22:01;22.38;;;8.32;;
71665;SDS011;59503;53.486;10.196;2022-12-20T15:24:27;14.23;;;6.67;;
71665;SDS011;59503;53.486;10.196;2022-12-20T15:26:53;10.50;;;6.18;;
71665;SDS011;59503;53.486;10.196;2022-12-20T15:29:23;14.18;;;6.75;;
71665;SDS011;59503;53.486;10.196;2022-12-20T15:31:51;15.65;;;7.15;;
71665;SDS011;59503;53.486;10.196;2022-12-20T15:34:29;9.97;;;5.90;;
71665;SDS011;59503;53.486;10.196;2022-12-20T15:36:59;13.80;;;6.40;;
71665;SDS011;59503;53.486;10.196;2022-12-20T15:39:26;23.02;;;8.20;;
71665;SDS011;59503;53.486;10.196;2022-12-20T15:41:53;17.23;;;7.55;;
71665;SDS011;59503;53.486;10.196;2022-12-20T15:44:22;15.82;;;8.00;;
71665;SDS011;59503;53.486;10.196;2022-12-20T15:46:50;15.23;;;7.50;;
71665;SDS011;59503;53.486;10.196;2022-12-20T15:49:18;15.65;;;7.40;;
71665;SDS011;59503;53.486;10.196;2022-12-20T15:51:46;14.07;;;7.03;;
71665;SDS011;59503;53.486;10.196;2022-12-20T15:56:51;15.80;;;7.72;;
71665;SDS011;59503;53.486;10.196;2022-12-20T15:59:17;16.47;;;8.43;;
71665;SDS011;59503;53.486;10.196;2022-12-20T16:01:43;15.68;;;8.50;;
71665;SDS011;59503;53.486;10.196;2022-12-20T16:04:11;18.53;;;8.37;;
71665;SDS011;59503;53.486;10.196;2022-12-20T16:06:42;17.30;;;8.32;;
71665;SDS011;59503;53.486;10.196;2022-12-20T16:09:09;19.38;;;8.43;;
71665;SDS011;59503;53.486;10.196;2022-12-20T16:11:35;16.60;;;7.30;;
71665;SDS011;59503;53.486;10.196;2022-12-20T16:14:00;14.27;;;7.50;;
71665;SDS011;59503;53.486;10.196;2022-12-20T16:16:29;14.85;;;7.18;;
71665;SDS011;59503;53.486;10.196;2022-12-20T16:18:59;11.23;;;6.77;;
71665;SDS011;59503;53.486;10.196;2022-12-20T16:21:26;14.73;;;6.65;;
71665;SDS011;59503;53.486;10.196;2022-12-20T16:23:55;13.85;;;6.47;;
71665;SDS011;59503;53.486;10.196;2022-12-20T16:26:21;10.67;;;6.20;;
71665;SDS011;59503;53.486;10.196;2022-12-20T16:28:48;12.50;;;6.00;;
71665;SDS011;59503;53.486;10.196;2022-12-20T16:31:35;10.85;;;6.32;;
71665;SDS011;59503;53.486;10.196;2022-12-20T16:34:06;15.80;;;6.03;;
71665;SDS011;59503;53.486;10.196;2022-12-20T16:36:36;11.87;;;5.63;;
71665;SDS011;59503;53.486;10.196;2022-12-20T16:39:02;12.20;;;5.90;;
71665;SDS011;59503;53.486;10.196;2022-12-20T16:41:29;16.77;;;6.30;;